Green Hill, Rhode Island
Current Conditions -  °F | °C
As of 8:53 AM on Tuesday 21 Oct 2014 (Local Time) from KWST Reporting Station
Clear Clear  
Wind Chill: 53°   Ceiling: Unl
Heat Index: 53°   Visibility: 10mi
Dew Point: 51°   Wind: 6mph
Humidity: 93%   Direction: 20°NNE
Pressure: 29.95"   Gusts: NA
Location:  41.4261°N, 71.5353°W
Report Text: KWST 211253Z AUTO 02005KT 10SM CLR 12/11 A2995 RMK AO2 SLP142 T01170106
Loading
Personal Weather Stations






























Interactive Weather Map
Tropical Storm Tracking
New forecast layout! Learn more

10-Day Weather Forecast

Advertisements
Track Severe Weather on mobile